Time;durP1;ratioP1;P1;durP2;ratioP2;P2;SDS_P1;SDS_P2;PMS_P1;PMS_P2;Temp;Humidity;BMP_temperature;BMP_pressure;BME280_temperature;BME280_humidity;BME280_pressure;Samples;Min_cycle;Max_cycle;Signal;HPM_P1;HPM_P2
2023/08/17 00:01:08;;;;;;;5.77;5.37;;;;;;;19.79;100.00;96444.19;4971332;28;105994;-71
2023/08/17 00:03:35;;;;;;;5.50;5.00;;;;;;;19.79;100.00;96436.09;4972507;28;101908;-71
2023/08/17 00:06:02;;;;;;;6.13;5.10;;;;;;;19.79;100.00;96449.56;4972882;28;105529;-71
2023/08/17 00:08:29;;;;;;;6.80;6.20;;;;;;;19.72;100.00;96444.59;4990174;28;102478;-71
2023/08/17 00:10:57;;;;;;;7.30;6.60;;;;;;;19.56;100.00;96448.75;4976026;28;101937;-71
2023/08/17 00:13:24;;;;;;;7.00;6.40;;;;;;;19.43;100.00;96449.59;4971865;28;105858;-71
2023/08/17 00:15:53;;;;;;;8.73;7.80;;;;;;;19.41;100.00;96453.72;4972349;28;102191;-71
2023/08/17 00:18:20;;;;;;;11.43;7.70;;;;;;;19.61;100.00;96459.44;4990401;28;102963;-71
2023/08/17 00:20:48;;;;;;;7.57;6.97;;;;;;;19.71;100.00;96459.19;4971968;28;105622;-71
2023/08/17 00:23:15;;;;;;;7.43;6.07;;;;;;;19.68;100.00;96467.13;4972262;28;101997;-71
2023/08/17 00:25:42;;;;;;;6.30;5.80;;;;;;;19.72;100.00;96476.19;4990148;28;103550;-72
2023/08/17 00:28:09;;;;;;;6.63;6.00;;;;;;;19.81;100.00;96479.75;4989520;28;103211;-73
2023/08/17 00:30:37;;;;;;;5.97;5.43;;;;;;;19.76;100.00;96477.16;4975517;28;101980;-73
2023/08/17 00:33:06;;;;;;;7.23;5.50;;;;;;;19.81;100.00;96472.47;4971865;28;105580;-73
2023/08/17 00:35:33;;;;;;;6.97;5.60;;;;;;;19.79;100.00;96476.56;4972413;28;102031;-73
2023/08/17 00:38:00;;;;;;;6.17;5.67;;;;;;;19.79;100.00;96482.75;4972040;28;104389;-73
2023/08/17 00:40:27;;;;;;;6.27;5.17;;;;;;;19.87;100.00;96478.50;4971562;28;105718;-73
2023/08/17 00:42:54;;;;;;;7.00;5.60;;;;;;;19.71;100.00;96474.59;4972271;28;101929;-73
2023/08/17 00:45:23;;;;;;;5.60;5.20;;;;;;;19.79;100.00;96471.16;4971565;28;105047;-73
2023/08/17 00:47:50;;;;;;;6.27;5.67;;;;;;;19.69;100.00;96469.50;4988134;28;105070;-73
2023/08/17 00:50:19;;;;;;;6.00;5.50;;;;;;;19.68;100.00;96467.88;4971903;28;102214;-73
2023/08/17 00:52:46;;;;;;;6.00;5.03;;;;;;;19.55;100.00;96466.06;4974796;28;104789;-71
2023/08/17 00:55:13;;;;;;;7.00;6.10;;;;;;;19.54;100.00;96469.03;4972184;28;101982;-71
2023/08/17 00:57:41;;;;;;;7.70;7.00;;;;;;;19.59;100.00;96471.63;4971558;28;105268;-71
2023/08/17 01:00:10;;;;;;;7.83;7.13;;;;;;;19.53;100.00;96465.56;4971428;28;105930;-72
2023/08/17 01:02:37;;;;;;;7.13;6.33;;;;;;;19.53;100.00;96472.84;4971992;28;101902;-73
2023/08/17 01:05:06;;;;;;;6.53;6.03;;;;;;;19.57;100.00;96471.16;4971935;28;104178;-73
2023/08/17 01:07:35;;;;;;;8.63;6.47;;;;;;;19.53;100.00;96475.53;4971409;28;104650;-71
2023/08/17 01:10:03;;;;;;;7.57;6.53;;;;;;;19.52;100.00;96479.34;4971508;28;101968;-71
2023/08/17 01:12:32;;;;;;;7.30;6.67;;;;;;;19.37;100.00;96480.50;4971511;28;105229;-71
2023/08/17 01:15:09;;;;;;;7.53;6.33;;;;;;;19.33;100.00;96481.38;4990901;28;105339;-71
2023/08/17 01:17:43;;;;;;;6.83;6.23;;;;;;;18.90;100.00;96472.84;4971645;28;105329;-71
2023/08/17 01:20:13;;;;;;;7.23;6.17;;;;;;;18.97;100.00;96470.53;4971008;28;105811;-71
2023/08/17 01:22:43;;;;;;;6.73;5.40;;;;;;;19.06;100.00;96470.63;4989648;28;102272;-71
2023/08/17 01:25:12;;;;;;;5.57;5.07;;;;;;;19.09;100.00;96464.63;4971750;28;105590;-71
2023/08/17 01:27:41;;;;;;;6.03;5.57;;;;;;;19.24;100.00;96467.03;4970978;28;105477;-71
2023/08/17 01:30:10;;;;;;;7.20;6.60;;;;;;;19.33;100.00;96478.69;4971609;28;102024;-72
2023/08/17 01:32:42;;;;;;;6.90;6.17;;;;;;;19.34;100.00;96481.09;4971275;28;105582;-72
2023/08/17 01:35:17;;;;;;;7.40;6.70;;;;;;;19.27;100.00;96486.09;4970962;28;105621;-71
2023/08/17 01:37:45;;;;;;;5.83;5.43;;;;;;;19.16;100.00;96483.88;4975147;28;102233;-71
2023/08/17 01:40:14;;;;;;;6.70;6.20;;;;;;;19.15;100.00;96474.22;4970687;28;105658;-71
2023/08/17 01:42:43;;;;;;;6.30;5.80;;;;;;;19.17;100.00;96470.09;4971407;28;102049;-71
2023/08/17 01:45:10;;;;;;;5.93;5.50;;;;;;;19.04;100.00;96468.25;4988052;28;105595;-69
2023/08/17 01:47:37;;;;;;;6.30;5.70;;;;;;;19.06;100.00;96465.22;4988696;28;102057;-69
2023/08/17 01:50:06;;;;;;;6.50;5.97;;;;;;;18.90;100.00;96461.25;4989377;28;102165;-70
2023/08/17 01:52:33;;;;;;;6.00;5.40;;;;;;;19.12;100.00;96472.91;4987670;28;105328;-70
2023/08/17 01:55:01;;;;;;;8.03;5.80;;;;;;;19.05;100.00;96475.22;4970385;28;105644;-69
2023/08/17 01:57:30;;;;;;;5.57;4.93;;;;;;;19.05;100.00;96469.03;4971015;28;101864;-70
2023/08/17 01:59:57;;;;;;;5.83;5.33;;;;;;;19.17;100.00;96480.09;4990373;28;105469;-70
2023/08/17 02:02:24;;;;;;;6.10;5.70;;;;;;;18.97;100.00;96478.59;4971527;28;101988;-70
2023/08/17 02:04:51;;;;;;;7.17;6.53;;;;;;;19.01;100.00;96481.53;4971229;28;105096;-70
2023/08/17 02:07:18;;;;;;;7.30;6.70;;;;;;;18.67;100.00;96462.25;4970266;28;105704;-71
2023/08/17 02:09:49;;;;;;;7.17;5.90;;;;;;;18.93;100.00;96464.16;4971195;28;101956;-71
2023/08/17 02:12:16;;;;;;;6.50;5.90;;;;;;;18.84;100.00;96465.94;4971144;28;105280;-71
2023/08/17 02:14:45;;;;;;;5.43;4.93;;;;;;;18.68;100.00;96471.94;4970449;28;105426;-71
2023/08/17 02:17:13;;;;;;;6.70;5.77;;;;;;;18.53;100.00;96467.63;4970955;28;102017;-70
2023/08/17 02:19:40;;;;;;;8.00;7.30;;;;;;;18.69;100.00;96470.84;4971121;28;105599;-70
2023/08/17 02:22:07;;;;;;;6.80;6.20;;;;;;;18.70;100.00;96469.75;4973728;28;105489;-70
2023/08/17 02:24:34;;;;;;;8.47;7.00;;;;;;;18.79;100.00;96463.34;4971279;28;105735;-70
2023/08/17 02:27:01;;;;;;;6.83;6.23;;;;;;;18.75;100.00;96465.03;4973916;28;105548;-70
2023/08/17 02:29:28;;;;;;;7.33;6.73;;;;;;;18.77;100.00;96472.84;4974159;28;101993;-70
2023/08/17 02:31:57;;;;;;;8.37;7.20;;;;;;;18.98;100.00;96460.56;4973958;28;105247;-71
2023/08/17 02:34:27;;;;;;;7.30;6.60;;;;;;;18.78;100.00;96450.19;4990118;28;104291;-70
2023/08/17 02:36:54;;;;;;;7.10;6.43;;;;;;;18.88;100.00;96452.66;4974071;28;101873;-71
2023/08/17 02:39:22;;;;;;;7.80;7.10;;;;;;;18.87;100.00;96449.19;4974101;28;105297;-71
2023/08/17 02:41:49;;;;;;;7.80;7.10;;;;;;;18.85;100.00;96439.81;4976454;28;105818;-71
2023/08/17 02:44:17;;;;;;;7.43;6.53;;;;;;;19.01;100.00;96451.88;4973921;28;105296;-71
2023/08/17 02:46:44;;;;;;;7.33;6.73;;;;;;;18.86;100.00;96438.72;4973193;28;105809;-71
2023/08/17 02:49:12;;;;;;;7.40;6.90;;;;;;;18.59;100.00;96425.25;4974030;28;102041;-71
2023/08/17 02:51:39;;;;;;;7.20;6.60;;;;;;;18.61;100.00;96433.81;4990192;28;103991;-71
2023/08/17 02:54:07;;;;;;;6.90;6.40;;;;;;;18.55;100.00;96435.84;4973201;28;105832;-71
2023/08/17 02:56:35;;;;;;;6.53;5.93;;;;;;;18.59;100.00;96442.19;4973576;28;101981;-70
2023/08/17 02:59:03;;;;;;;7.07;6.57;;;;;;;18.49;100.00;96434.34;4991559;28;103230;-71
2023/08/17 03:01:31;;;;;;;6.50;5.87;;;;;;;18.51;100.00;96426.75;4972870;28;105869;-71
2023/08/17 03:03:58;;;;;;;7.63;6.80;;;;;;;18.35;100.00;96425.44;4977232;28;102109;-71
2023/08/17 03:06:26;;;;;;;7.23;6.60;;;;;;;18.57;100.00;96432.81;4973017;28;106095;-71
2023/08/17 03:08:54;;;;;;;7.07;6.47;;;;;;;18.32;100.00;96427.94;4973339;28;102791;-71
2023/08/17 03:11:21;;;;;;;7.27;6.57;;;;;;;18.42;100.00;96436.59;4973504;28;105332;-71
2023/08/17 03:13:48;;;;;;;6.93;6.33;;;;;;;18.20;100.00;96428.38;4972598;28;105454;-71
2023/08/17 03:16:16;;;;;;;8.63;6.63;;;;;;;18.31;100.00;96431.69;4973398;28;102123;-70
2023/08/17 03:18:43;;;;;;;7.20;6.60;;;;;;;18.45;100.00;96424.44;4973525;28;104130;-70
2023/08/17 03:21:11;;;;;;;7.03;6.43;;;;;;;18.72;100.00;96441.41;4972495;28;105707;-70
2023/08/17 03:23:39;;;;;;;8.53;7.73;;;;;;;18.61;100.00;96441.91;4990200;28;102003;-71
2023/08/17 03:26:06;;;;;;;8.50;6.50;;;;;;;18.55;100.00;96432.31;4993931;28;102545;-71
2023/08/17 03:28:33;;;;;;;7.33;6.50;;;;;;;18.44;100.00;96433.63;4991413;28;101889;-71
2023/08/17 03:31:00;;;;;;;7.50;6.87;;;;;;;18.21;100.00;96429.97;4973186;28;103593;-72
2023/08/17 03:33:27;;;;;;;7.20;6.13;;;;;;;18.38;100.00;96442.91;4989165;28;105960;-71
2023/08/17 03:35:54;;;;;;;6.67;6.17;;;;;;;18.23;100.00;96449.34;4972082;28;101992;-71
2023/08/17 03:38:21;;;;;;;7.20;6.50;;;;;;;18.35;100.00;96449.66;4973183;28;105268;-73
2023/08/17 03:40:50;;;;;;;8.00;6.93;;;;;;;18.39;100.00;96460.66;4972488;28;105635;-71
2023/08/17 03:43:17;;;;;;;7.90;7.20;;;;;;;18.40;100.00;96454.16;4973054;28;101898;-70
2023/08/17 03:45:44;;;;;;;7.43;6.73;;;;;;;18.56;100.00;96442.00;4972679;28;105224;-72
2023/08/17 03:48:11;;;;;;;8.10;7.30;;;;;;;18.45;100.00;96445.97;4993696;28;103040;-70
2023/08/17 03:50:39;;;;;;;9.43;7.27;;;;;;;18.56;100.00;96461.66;4972795;28;104154;-71
2023/08/17 03:53:06;;;;;;;8.47;7.67;;;;;;;18.21;100.00;96450.72;4972051;28;104296;-71
2023/08/17 03:55:33;;;;;;;7.53;6.83;;;;;;;18.26;100.00;96454.09;4966020;28;101983;-71
2023/08/17 03:58:02;;;;;;;7.73;7.03;;;;;;;18.45;100.00;96468.34;4961565;28;105681;-71
2023/08/17 04:00:29;;;;;;;7.07;6.47;;;;;;;18.42;100.00;96463.53;4963205;28;105233;-71
2023/08/17 04:02:59;;;;;;;7.20;6.50;;;;;;;18.52;100.00;96462.56;4980748;28;102125;-71
2023/08/17 04:05:26;;;;;;;7.70;7.00;;;;;;;18.48;100.00;96464.25;4961162;28;105577;-71
2023/08/17 04:07:53;;;;;;;7.87;6.97;;;;;;;18.46;100.00;96469.13;4965835;28;105870;-71
2023/08/17 04:10:20;;;;;;;8.30;7.50;;;;;;;18.32;100.00;96471.78;4976733;28;102020;-71
2023/08/17 04:12:47;;;;;;;9.10;8.30;;;;;;;18.35;100.00;96473.91;4972806;28;105449;-71
2023/08/17 04:15:16;;;;;;;8.60;7.87;;;;;;;18.00;100.00;96468.31;4967082;28;103354;-71
2023/08/17 04:17:43;;;;;;;8.63;7.80;;;;;;;18.09;100.00;96474.63;4970255;28;105334;-71
2023/08/17 04:20:12;;;;;;;8.77;7.97;;;;;;;18.04;100.00;96474.72;4952792;28;105636;-71
2023/08/17 04:22:39;;;;;;;9.00;7.23;;;;;;;18.20;100.00;96473.34;4954053;28;102043;-70
2023/08/17 04:25:07;;;;;;;8.23;7.53;;;;;;;18.06;100.00;96469.81;4970322;28;104247;-70
2023/08/17 04:27:34;;;;;;;8.10;7.40;;;;;;;18.20;100.00;96470.66;4952812;28;104650;-70
2023/08/17 04:30:01;;;;;;;7.23;6.60;;;;;;;18.35;100.00;96470.41;4952735;28;101851;-70
2023/08/17 04:32:35;;;;;;;8.00;7.30;;;;;;;18.36;100.00;96472.03;4955470;28;104731;-70
2023/08/17 04:35:02;;;;;;;8.73;7.93;;;;;;;18.44;100.00;96471.31;4952500;28;102811;-71
2023/08/17 04:37:29;;;;;;;7.97;7.27;;;;;;;18.50;100.00;96476.31;4952876;28;105244;-71
2023/08/17 04:39:56;;;;;;;8.07;7.47;;;;;;;18.52;100.00;96476.03;4951918;28;105519;-71
2023/08/17 04:42:25;;;;;;;8.67;7.77;;;;;;;18.43;100.00;96481.28;4952597;28;101997;-71
2023/08/17 04:44:53;;;;;;;7.03;6.43;;;;;;;18.50;100.00;96480.91;4952277;28;105411;-70
2023/08/17 04:47:20;;;;;;;7.63;7.03;;;;;;;18.45;100.00;96489.06;4951481;28;105614;-70
2023/08/17 04:49:49;;;;;;;7.87;7.33;;;;;;;18.41;100.00;96485.38;4969681;28;102140;-70
2023/08/17 04:52:16;;;;;;;8.23;7.60;;;;;;;18.39;100.00;96491.06;4955197;28;104142;-70
2023/08/17 04:54:43;;;;;;;7.93;7.33;;;;;;;18.33;100.00;96486.06;4952740;28;101910;-72
2023/08/17 04:57:10;;;;;;;8.30;7.70;;;;;;;18.27;100.00;96490.72;4952293;28;105346;-71
2023/08/17 04:59:37;;;;;;;12.53;8.63;;;;;;;18.27;100.00;96487.22;4951621;28;104609;-70
2023/08/17 05:02:05;;;;;;;9.33;8.40;;;;;;;18.22;100.00;96487.31;4969904;28;101817;-70
2023/08/17 05:04:33;;;;;;;8.70;7.90;;;;;;;18.31;100.00;96486.31;4968749;28;105330;-70
2023/08/17 05:07:02;;;;;;;8.50;7.90;;;;;;;18.32;100.00;96482.56;4951599;28;105417;-70
2023/08/17 05:09:30;;;;;;;8.10;7.50;;;;;;;18.28;100.00;96486.94;4968313;28;101923;-71
2023/08/17 05:11:58;;;;;;;7.93;7.23;;;;;;;18.57;100.00;96492.06;4952330;28;104847;-71
2023/08/17 05:14:25;;;;;;;8.47;7.87;;;;;;;18.59;100.00;96484.50;4954891;28;105431;-74
2023/08/17 05:16:53;;;;;;;7.80;7.10;;;;;;;18.78;100.00;96471.72;4968804;28;104947;-77
2023/08/17 05:19:20;;;;;;;7.03;6.53;;;;;;;19.01;100.00;96482.31;4951410;28;105055;-71
2023/08/17 05:21:50;;;;;;;7.63;7.03;;;;;;;19.00;100.00;96475.31;4968174;28;101946;-72
2023/08/17 05:24:20;;;;;;;7.67;7.13;;;;;;;19.06;100.00;96467.91;4951816;28;105541;-72
2023/08/17 05:26:47;;;;;;;6.70;6.20;;;;;;;19.36;100.00;96478.91;4951090;28;104501;-72
2023/08/17 05:29:17;;;;;;;7.23;6.73;;;;;;;19.48;100.00;96473.78;4952334;28;101987;-71
2023/08/17 05:31:45;;;;;;;7.70;7.10;;;;;;;19.64;100.00;96476.91;4968310;28;105338;-72
2023/08/17 05:34:13;;;;;;;6.30;5.90;;;;;;;19.70;100.00;96468.41;4951128;28;104258;-72
2023/08/17 05:36:40;;;;;;;6.03;5.43;;;;;;;19.89;100.00;96476.31;4955542;28;102031;-72
2023/08/17 05:39:09;;;;;;;6.23;5.83;;;;;;;19.82;100.00;96470.53;4951244;28;105490;-71
2023/08/17 05:41:38;;;;;;;6.90;6.40;;;;;;;19.89;100.00;96471.72;4968305;28;102293;-72
2023/08/17 05:44:06;;;;;;;5.97;5.57;;;;;;;20.01;100.00;96471.16;4968217;28;104276;-72
2023/08/17 05:46:34;;;;;;;5.87;5.37;;;;;;;20.14;100.00;96467.63;4950824;28;105413;-72
2023/08/17 05:49:02;;;;;;;6.03;5.50;;;;;;;20.26;100.00;96465.13;4951891;28;102072;-72
2023/08/17 05:51:29;;;;;;;6.43;5.90;;;;;;;20.42;100.00;96475.25;4967762;28;105305;-71
2023/08/17 05:53:56;;;;;;;5.47;5.07;;;;;;;20.50;100.00;96476.41;4951163;28;103101;-71
2023/08/17 05:56:23;;;;;;;5.73;5.33;;;;;;;20.73;100.00;96480.63;4951648;28;102494;-71
2023/08/17 05:58:52;;;;;;;6.30;5.87;;;;;;;20.87;100.00;96475.94;4954534;28;105400;-72
2023/08/17 06:01:20;;;;;;;6.60;6.10;;;;;;;21.04;100.00;96474.09;4954681;28;101945;-72
2023/08/17 06:03:47;;;;;;;6.43;5.93;;;;;;;21.26;100.00;96473.19;4955121;28;105659;-71
2023/08/17 06:06:14;;;;;;;6.27;5.67;;;;;;;21.35;100.00;96471.28;4970948;28;105538;-71
2023/08/17 06:08:41;;;;;;;5.70;5.27;;;;;;;21.57;100.00;96468.47;4972657;28;101909;-71
2023/08/17 06:11:08;;;;;;;6.10;5.50;;;;;;;21.61;100.00;96474.81;4971136;28;104115;-71
2023/08/17 06:13:36;;;;;;;6.23;5.63;;;;;;;21.55;100.00;96476.09;4954159;28;105532;-72
2023/08/17 06:16:05;;;;;;;5.80;5.40;;;;;;;21.68;100.00;96480.63;4972486;28;101837;-71
2023/08/17 06:18:32;;;;;;;5.97;5.50;;;;;;;21.49;100.00;96485.47;4954846;28;105277;-72
2023/08/17 06:20:59;;;;;;;5.93;5.40;;;;;;;21.65;100.00;96483.91;4957327;28;105765;-71
2023/08/17 06:23:26;;;;;;;6.13;5.50;;;;;;;21.87;100.00;96490.00;4954845;28;105153;-71
2023/08/17 06:25:57;;;;;;;5.90;5.50;;;;;;;22.24;100.00;96483.09;4953838;28;105081;-71
2023/08/17 06:28:24;;;;;;;6.00;5.50;;;;;;;22.25;100.00;96482.00;4970666;28;102363;-71
2023/08/17 06:30:53;;;;;;;5.17;4.77;;;;;;;21.92;100.00;96473.59;4954617;28;105349;-71
2023/08/17 06:33:23;;;;;;;5.83;5.00;;;;;;;21.97;100.00;96472.63;4953875;28;105789;-72
2023/08/17 06:35:50;;;;;;;5.53;5.13;;;;;;;22.04;100.00;96475.63;4971097;28;101918;-72
2023/08/17 06:38:17;;;;;;;5.63;5.17;;;;;;;21.97;100.00;96483.47;4954442;28;105316;-72
2023/08/17 06:40:46;;;;;;;5.47;4.97;;;;;;;22.04;100.00;96475.63;4969970;28;104358;-72
2023/08/17 06:43:13;;;;;;;5.60;5.13;;;;;;;22.08;100.00;96474.66;4957794;28;101893;-72
2023/08/17 06:45:40;;;;;;;6.13;5.10;;;;;;;22.34;100.00;96471.94;4969559;28;105038;-72
2023/08/17 06:48:07;;;;;;;5.20;4.80;;;;;;;22.58;100.00;96474.91;4970633;28;101911;-72
2023/08/17 06:50:36;;;;;;;10.57;5.07;;;;;;;22.67;100.00;96476.47;4971846;28;102924;-72
2023/08/17 06:53:03;;;;;;;4.70;4.40;;;;;;;22.84;100.00;96484.53;4953461;28;106220;-72
2023/08/17 06:55:31;;;;;;;6.40;5.00;;;;;;;22.91;100.00;96478.63;4971750;28;102081;-72
2023/08/17 06:57:58;;;;;;;5.20;4.80;;;;;;;23.14;100.00;96479.94;4954426;28;105497;-72
2023/08/17 07:00:26;;;;;;;5.83;4.97;;;;;;;23.16;100.00;96480.41;4971138;28;103147;-71
2023/08/17 07:02:53;;;;;;;6.83;5.10;;;;;;;23.06;100.00;96468.00;4957523;28;102121;-71
2023/08/17 07:05:20;;;;;;;5.90;5.40;;;;;;;22.79;100.00;96473.91;4953235;28;105064;-71
2023/08/17 07:07:48;;;;;;;8.73;5.17;;;;;;;22.93;100.00;96473.66;4970646;28;102326;-72
2023/08/17 07:10:15;;;;;;;6.20;5.70;;;;;;;22.76;100.00;96476.44;4953537;28;105432;-72
2023/08/17 07:12:43;;;;;;;6.20;5.60;;;;;;;22.67;100.00;96481.13;4969852;28;105114;-72
2023/08/17 07:15:10;;;;;;;7.13;5.70;;;;;;;22.91;100.00;96478.63;4969957;28;102241;-72
2023/08/17 07:17:38;;;;;;;5.87;5.37;;;;;;;23.06;100.00;96486.22;4953919;28;105458;-72
2023/08/17 07:20:07;;;;;;;6.40;5.80;;;;;;;23.28;100.00;96481.31;4953100;28;105723;-72
2023/08/17 07:22:34;;;;;;;5.87;5.30;;;;;;;23.63;100.00;96471.81;4969905;28;102041;-72
2023/08/17 07:25:03;;;;;;;6.87;6.30;;;;;;;23.52;100.00;96483.41;4956860;28;105676;-72
2023/08/17 07:27:30;;;;;;;7.67;7.07;;;;;;;23.73;100.00;96479.56;4953782;28;102254;-72
2023/08/17 07:29:57;;;;;;;7.33;6.63;;;;;;;23.94;100.00;96474.16;4953768;28;105105;-72
2023/08/17 07:32:25;;;;;;;6.83;6.17;;;;;;;24.21;100.00;96487.97;4953101;28;106050;-72
2023/08/17 07:34:53;;;;;;;7.20;6.70;;;;;;;24.23;100.00;96490.34;4953525;28;101873;-72
2023/08/17 07:37:20;;;;;;;7.20;6.70;;;;;;;24.31;100.00;96492.97;4953509;28;104205;-72
2023/08/17 07:39:47;;;;;;;8.83;8.03;;;;;;;23.91;100.00;96488.41;4969309;28;105924;-72
2023/08/17 07:42:15;;;;;;;9.83;8.80;;;;;;;23.83;100.00;96491.97;4969571;28;101975;-72
2023/08/17 07:44:42;;;;;;;10.43;9.53;;;;;;;23.32;100.00;96490.38;4953334;28;105483;-72
2023/08/17 07:47:11;;;;;;;9.20;8.50;;;;;;;23.72;100.00;96496.19;4956226;28;104015;-72
2023/08/17 07:49:38;;;;;;;9.30;8.40;;;;;;;24.18;100.00;96482.41;4969709;28;105668;-72
2023/08/17 07:52:05;;;;;;;9.90;8.90;;;;;;;24.53;100.00;96489.88;4952817;28;105579;-72
2023/08/17 07:54:32;;;;;;;9.00;8.17;;;;;;;24.68;100.00;96483.03;4969699;28;101908;-72
2023/08/17 07:56:59;;;;;;;8.27;7.47;;;;;;;24.78;100.00;96488.03;4953167;28;103771;-72
2023/08/17 07:59:28;;;;;;;8.40;7.60;;;;;;;24.95;100.00;96487.84;4952500;28;105771;-72
2023/08/17 08:01:55;;;;;;;8.17;7.53;;;;;;;24.99;100.00;96491.44;4953229;28;102123;-72
2023/08/17 08:04:22;;;;;;;6.93;6.23;;;;;;;25.41;100.00;96485.47;4969679;28;105575;-72
2023/08/17 08:06:49;;;;;;;7.17;6.57;;;;;;;25.70;100.00;96492.56;4952549;28;104436;-72
2023/08/17 08:09:16;;;;;;;7.37;6.60;;;;;;;25.66;100.00;96492.47;4972679;28;102038;-72
2023/08/17 08:11:43;;;;;;;7.10;6.60;;;;;;;25.47;100.00;96491.47;4952519;28;105695;-72
2023/08/17 08:14:10;;;;;;;7.37;6.83;;;;;;;25.60;100.00;96484.91;4968898;28;101972;-72
2023/08/17 08:16:39;;;;;;;6.87;6.27;;;;;;;25.78;100.00;96480.75;4953223;28;104222;-72
2023/08/17 08:19:06;;;;;;;6.70;6.27;;;;;;;25.99;100.00;96492.31;4952634;28;105343;-72
2023/08/17 08:21:33;;;;;;;6.93;6.23;;;;;;;25.80;100.00;96494.81;4953213;28;101834;-72
2023/08/17 08:24:00;;;;;;;7.17;6.60;;;;;;;26.04;100.00;96484.66;4951968;28;105508;-72
2023/08/17 08:26:27;;;;;;;7.50;6.80;;;;;;;26.08;100.00;96479.31;4951948;28;105843;-72
2023/08/17 08:28:54;;;;;;;7.50;6.80;;;;;;;26.43;100.00;96481.06;4969278;28;101977;-72
2023/08/17 08:31:21;;;;;;;7.50;7.00;;;;;;;26.37;100.00;96477.03;4973137;28;102880;-72
2023/08/17 08:33:51;;;;;;;7.13;6.50;;;;;;;26.55;100.00;96472.88;4952774;28;101908;-72
2023/08/17 08:36:18;;;;;;;7.30;6.63;;;;;;;26.46;100.00;96477.66;4969155;28;105362;-72
2023/08/17 08:38:45;;;;;;;7.37;6.57;;;;;;;26.65;100.00;96483.25;4968199;28;105977;-72
2023/08/17 08:41:13;;;;;;;8.00;7.30;;;;;;;26.26;100.00;96470.50;4970070;28;102738;-72
2023/08/17 08:43:40;;;;;;;7.70;7.00;;;;;;;26.21;100.00;96478.13;4952742;28;105193;-72
2023/08/17 08:46:07;;;;;;;7.87;7.27;;;;;;;26.28;100.00;96476.41;4951901;28;105492;-72
2023/08/17 08:48:36;;;;;;;7.17;6.40;;;;;;;26.45;100.00;96476.09;4969096;28;102173;-72
2023/08/17 08:51:08;;;;;;;7.00;6.40;;;;;;;26.66;100.00;96473.16;4952589;28;105314;-72
2023/08/17 08:53:39;;;;;;;6.60;6.10;;;;;;;26.79;100.00;96466.47;4955269;28;101904;-72
2023/08/17 08:56:12;;;;;;;6.43;5.93;;;;;;;27.17;100.00;96472.13;4952120;28;104086;-72
2023/08/17 08:58:41;;;;;;;6.77;6.17;;;;;;;27.23;100.00;96470.69;4951960;28;105964;-72
2023/08/17 09:01:11;;;;;;;6.90;6.40;;;;;;;27.43;100.00;96469.63;4952540;28;101959;-72
2023/08/17 09:03:39;;;;;;;6.57;5.97;;;;;;;27.56;100.00;96469.16;4968668;28;105576;-72
2023/08/17 09:06:10;;;;;;;6.87;6.27;;;;;;;27.60;100.00;96469.22;4967911;28;105487;-72
2023/08/17 09:08:38;;;;;;;6.93;6.33;;;;;;;27.64;100.00;96465.44;4952121;28;101890;-72
2023/08/17 09:11:05;;;;;;;7.13;5.97;;;;;;;27.93;100.00;96467.66;4952281;28;105313;-72
2023/08/17 09:13:32;;;;;;;6.00;5.50;;;;;;;28.00;100.00;96461.53;4954625;28;105701;-72
2023/08/17 09:16:01;;;;;;;6.77;6.17;;;;;;;27.89;100.00;96464.03;4952306;28;105280;-72
2023/08/17 09:18:28;;;;;;;6.57;6.07;;;;;;;27.82;100.00;96461.16;4951492;28;105639;-72
2023/08/17 09:20:55;;;;;;;7.47;5.50;;;;;;;27.89;100.00;96472.25;4970017;28;102121;-72
2023/08/17 09:23:24;;;;;;;6.33;5.83;;;;;;;28.05;100.00;96455.75;4969640;28;102857;-72
2023/08/17 09:25:57;;;;;;;5.50;5.00;;;;;;;28.39;100.00;96454.91;4951231;28;105432;-72
2023/08/17 09:28:25;;;;;;;5.65;5.20;;;;;;;28.70;100.00;96454.69;4952193;28;101858;-72
2023/08/17 09:30:56;;;;;;;5.68;5.18;;;;;;;28.69;100.00;96453.13;4969302;28;102602;-72
2023/08/17 09:33:24;;;;;;;5.28;4.85;;;;;;;28.96;100.00;96449.28;4951794;28;105734;-72
2023/08/17 09:35:52;;;;;;;5.15;4.75;;;;;;;29.01;100.00;96446.25;4958849;28;101971;-72
2023/08/17 09:38:20;;;;;;;5.45;5.00;;;;;;;28.74;100.00;96441.88;4954904;28;105559;-72
2023/08/17 09:40:49;;;;;;;4.55;4.25;;;;;;;29.20;100.00;96444.22;4971842;28;101940;-72
2023/08/17 09:43:17;;;;;;;4.78;4.13;;;;;;;29.33;100.00;96442.88;4973218;28;101833;-72
2023/08/17 09:45:48;;;;;;;4.93;4.53;;;;;;;29.56;100.00;96435.41;4954599;28;105277;-72
2023/08/17 09:48:17;;;;;;;5.03;4.60;;;;;;;29.74;100.00;96441.91;4955368;28;102374;-72
2023/08/17 09:50:45;;;;;;;4.82;4.43;;;;;;;29.75;100.00;96435.28;4955402;28;104443;-72
2023/08/17 09:53:14;;;;;;;4.90;4.60;;;;;;;29.94;100.00;96434.34;4954222;28;105831;-72
2023/08/17 09:55:42;;;;;;;4.57;4.28;;;;;;;29.30;100.00;96434.59;4955094;28;102263;-72
2023/08/17 09:58:14;;;;;;;5.05;4.63;;;;;;;29.62;100.00;96433.13;4958259;28;105560;-72
2023/08/17 10:00:45;;;;;;;5.72;4.50;;;;;;;30.04;100.00;96429.00;4973067;28;102059;-72
2023/08/17 10:03:14;;;;;;;5.05;4.55;;;;;;;29.83;100.00;96433.41;4972819;28;102575;-72
2023/08/17 10:05:43;;;;;;;5.10;4.72;;;;;;;30.03;100.00;96421.13;4972267;28;101839;-72
2023/08/17 10:08:12;;;;;;;5.15;4.70;;;;;;;29.89;100.00;96426.44;4955225;28;102369;-72
2023/08/17 10:10:44;;;;;;;5.22;4.60;;;;;;;28.48;100.00;96428.91;4954503;28;105521;-72
2023/08/17 10:13:17;;;;;;;5.57;5.18;;;;;;;28.86;100.00;96419.78;4970875;28;105626;-72
2023/08/17 10:15:48;;;;;;;5.78;5.38;;;;;;;29.11;100.00;96419.06;4954769;28;102020;-72
2023/08/17 10:18:23;;;;;;;6.43;5.00;;;;;;;29.74;100.00;96419.22;4955066;28;104081;-72
2023/08/17 10:21:01;;;;;;;5.00;4.53;;;;;;;29.80;100.00;96420.47;4957799;28;105385;-72
2023/08/17 10:23:29;;;;;;;5.13;4.68;;;;;;;30.02;100.00;96422.31;4972503;28;102943;-72
2023/08/17 10:25:57;;;;;;;4.82;4.47;;;;;;;30.27;100.00;96415.16;4954091;28;105464;-72
2023/08/17 10:28:25;;;;;;;4.88;4.47;;;;;;;30.20;100.00;96417.84;4954399;28;102370;-72
2023/08/17 10:30:52;;;;;;;4.80;4.50;;;;;;;30.34;100.00;96426.22;4954620;28;105339;-72
2023/08/17 10:33:20;;;;;;;5.10;4.60;;;;;;;30.68;100.00;96416.81;4953581;28;105741;-72
2023/08/17 10:35:48;;;;;;;5.68;4.38;;;;;;;29.10;100.00;96424.91;4972133;28;101912;-72
2023/08/17 10:38:17;;;;;;;4.80;4.07;;;;;;;30.36;100.00;96421.16;4954589;28;105295;-72
2023/08/17 10:40:45;;;;;;;4.40;4.00;;;;;;;30.77;100.00;96417.25;4953699;28;105642;-72
2023/08/17 10:43:12;;;;;;;5.10;4.70;;;;;;;30.84;100.00;96414.59;4975525;28;101883;-72
2023/08/17 10:45:44;;;;;;;4.95;4.45;;;;;;;30.70;100.00;96411.72;4952964;28;105813;-72
2023/08/17 10:48:29;;;;;;;4.70;4.40;;;;;;;30.68;100.00;96414.81;4954459;28;101924;-72
2023/08/17 10:51:04;;;;;;;4.97;4.60;;;;;;;30.65;100.00;96409.28;4954241;28;105606;-72
2023/08/17 10:53:38;;;;;;;5.03;4.70;;;;;;;29.09;100.00;96410.41;4970224;28;105576;-72
2023/08/17 10:56:09;;;;;;;8.65;5.15;;;;;;;29.19;100.00;96408.97;4970387;28;101946;-72
2023/08/17 10:58:36;;;;;;;5.40;4.88;;;;;;;30.42;100.00;96405.91;4970849;28;105159;-72
2023/08/17 11:01:05;;;;;;;5.05;4.60;;;;;;;30.46;100.00;96407.53;4953388;28;105621;-72
2023/08/17 11:03:33;;;;;;;5.40;4.78;;;;;;;30.82;100.00;96409.47;4957624;28;101990;-72
2023/08/17 11:06:15;;;;;;;4.40;4.00;;;;;;;31.42;100.00;96409.94;4969463;28;105989;-72
2023/08/17 11:08:54;;;;;;;6.63;4.30;;;;;;;31.05;100.00;96407.28;4954253;28;102030;-72
2023/08/17 11:11:22;;;;;;;4.78;4.38;;;;;;;31.30;100.00;96402.81;4953938;28;105803;-72
2023/08/17 11:13:50;;;;;;;5.10;4.80;;;;;;;30.92;100.00;96397.78;4970761;28;103219;-72
2023/08/17 11:16:20;;;;;;;4.80;4.40;;;;;;;31.63;100.00;96401.81;4970251;28;101938;-72
2023/08/17 11:18:46;;;;;;;4.43;4.13;;;;;;;32.20;100.00;96395.41;4970199;28;104942;-72
2023/08/17 11:21:14;;;;;;;4.90;3.88;;;;;;;32.52;99.65;96388.81;4953274;28;105732;-72